Gold Beach, OR (97444)

3:22 AM PDT on April 24, 2017 (GMT -0700)
MK4S1 | | Change Station

Elev 13 ft 42.41 °N, 124.42 °W | Updated 46 minutes ago

Overcast
Overcast
48.0 °F
Feels Like 41 °F
N
18.0
Wind Variable Wind from South
Gusts 28.0 mph

Today
High -- | Low -- °F
--% Chance of Precip.
Yesterday
High -- | Low -- °F
Precip. -- in
Pressure 29.88 in
Visibility 4.0 miles
Clouds Overcast 200 ft
Windchill 41 °F
Dew Point 46 °F
Humidity 93%
Rainfall 0.23 in
Snow Depth Not available.
6:22 AM 8:10 PM
Waning Crescent, 6% visible
SPECI KBOK 241011Z AUTO 17013G23KT 4SM RA BR OVC002 08/08 A2988 RMK AO2 P0005
Pressure 29.88 in
Visibility 4.0 miles
Clouds Overcast 200 ft
Windchill 41 °F
Dew Point 46 °F
Humidity 93%
Rainfall 0.23 in
Snow Depth Not available.
6:22 AM 8:10 PM
Waning Crescent, 6% visible
SPECI KBOK 241011Z AUTO 17013G23KT 4SM RA BR OVC002 08/08 A2988 RMK AO2 P0005

Get Severe Weather Alerts

Thanks for signing up!

Be on the lookout for a verification email in your inbox.

You'll start receiving the daily forecast at 8 AM.

×

10-Day Weather Forecast

Almanac

Astronomy

Apr. 24, 2017 Rise Set
Actual Time
Civil Twilight
Nautical Twilight
Astronomical Twilight
Moon
Length of Visible Light
Length of Day
Tomorrow will be .
, % of the Moon is Illuminated

Today's Extremes

State Highs State Lows

Community

WunderPhotos

WunderBlog® & News

Nearby

Air Quality

  Air Quality AQ Index Pollutant
Not available.

Snow Depth

Station Depth Elevation

Earthquake Activity

City Distance Mag. Time & Date
Minimum magnitude displayed is 2.5.

Coastal Water Temperatures

Place Temperature

Stations

Nearby Weather Stations

Station Location Temp. Windchill Dew Point Humidity Wind Precip. Elev Updated Type
                   

Watches & Warnings

There are currently no watches in effect.